createdAt,value
2023-07-05T00:01:44.685Z,964.8
2023-07-05T00:06:27.990Z,964.7
2023-07-05T00:15:54.222Z,964.7
2023-07-05T00:20:37.545Z,964.6
2023-07-05T00:25:20.601Z,964.5
2023-07-05T00:30:03.928Z,964.4
2023-07-05T00:39:30.176Z,964.3
2023-07-05T00:44:13.523Z,964.2
2023-07-05T00:53:39.905Z,964.1
2023-07-05T00:58:23.273Z,964.1
2023-07-05T01:03:06.494Z,964.2
2023-07-05T01:12:33.059Z,964.1
2023-07-05T01:17:16.258Z,964.2
2023-07-05T01:21:59.161Z,964.2
2023-07-05T01:31:25.698Z,964.1
2023-07-05T01:36:09.050Z,964.1
2023-07-05T01:50:18.733Z,964.5
2023-07-05T01:55:02.010Z,964.6
2023-07-05T01:59:45.313Z,964.5
2023-07-05T02:04:28.550Z,964.5
2023-07-05T02:09:11.757Z,964.5
2023-07-05T02:13:55.079Z,964.4
2023-07-05T02:23:21.627Z,964.3
2023-07-05T02:28:04.911Z,964.1
2023-07-05T02:32:48.096Z,963.9
2023-07-05T02:37:31.400Z,963.7
2023-07-05T02:42:14.610Z,963.5
2023-07-05T02:46:57.519Z,963.2
2023-07-05T02:51:40.801Z,963.2
2023-07-05T02:56:24.037Z,963.2
2023-07-05T03:01:07.255Z,963.3
2023-07-05T03:05:50.539Z,963.5
2023-07-05T03:10:33.850Z,963.6
2023-07-05T03:15:17.134Z,963.5
2023-07-05T03:24:43.575Z,963.5
2023-07-05T03:29:27.047Z,963.5
2023-07-05T03:34:10.273Z,963.5
2023-07-05T03:38:53.398Z,963.6
2023-07-05T03:43:36.753Z,963.7
2023-07-05T03:48:19.914Z,963.8
2023-07-05T03:53:03.207Z,963.7
2023-07-05T03:57:46.419Z,963.8
2023-07-05T04:02:29.731Z,963.7
2023-07-05T04:07:12.180Z,963.7
2023-07-05T04:11:54.831Z,963.8
2023-07-05T04:16:37.606Z,963.9
2023-07-05T04:21:20.345Z,963.8
2023-07-05T04:26:03.131Z,963.8
2023-07-05T04:30:45.062Z,964
2023-07-05T04:35:27.757Z,964.1
2023-07-05T04:40:10.483Z,964.2
2023-07-05T04:44:53.230Z,964.2
2023-07-05T04:49:36.069Z,964.4
2023-07-05T04:54:18.724Z,964.5
2023-07-05T04:59:01.487Z,964.8
2023-07-05T05:03:44.261Z,965
2023-07-05T05:13:09.620Z,965
2023-07-05T05:17:52.437Z,964.9
2023-07-05T05:22:35.088Z,965
2023-07-05T05:27:17.802Z,965.2
2023-07-05T05:32:00.574Z,965.3
2023-07-05T05:36:43.288Z,965.3
2023-07-05T05:41:26.069Z,965.4
2023-07-05T05:46:08.844Z,965.5
2023-07-05T05:50:51.403Z,965.5
2023-07-05T05:55:34.209Z,965.6
2023-07-05T06:04:59.641Z,965.6
2023-07-05T06:09:41.631Z,965.6
2023-07-05T06:14:24.334Z,965.5
2023-07-05T06:19:07.162Z,965.6
2023-07-05T06:23:49.933Z,965.4
2023-07-05T06:28:32.630Z,965.2
2023-07-05T06:33:15.262Z,965.4
2023-07-05T06:42:40.845Z,965.6
2023-07-05T06:47:23.479Z,965.6
2023-07-05T06:52:06.192Z,965.4
2023-07-05T06:56:48.986Z,965.3
2023-07-05T07:01:31.870Z,965.3
2023-07-05T07:06:14.483Z,965.3
2023-07-05T07:10:57.114Z,965.4
2023-07-05T07:15:39.966Z,965.4
2023-07-05T07:20:22.638Z,965.3
2023-07-05T07:25:05.432Z,965.3
2023-07-05T07:29:48.124Z,965.3
2023-07-05T07:34:30.937Z,965.1
2023-07-05T07:39:13.570Z,965.1
2023-07-05T07:43:56.311Z,965.1
2023-07-05T07:48:38.994Z,965.1
2023-07-05T07:53:21.819Z,965.2
2023-07-05T07:58:04.474Z,965
2023-07-05T08:02:47.173Z,965.1
2023-07-05T08:07:29.892Z,965.1
2023-07-05T08:12:12.847Z,965.1
2023-07-05T08:16:55.584Z,965.1
2023-07-05T08:21:38.123Z,965.1
2023-07-05T08:26:20.893Z,965
2023-07-05T08:31:03.756Z,965
2023-07-05T08:35:46.323Z,965
2023-07-05T08:45:11.857Z,965
2023-07-05T08:49:54.692Z,965
2023-07-05T08:54:37.300Z,964.9
2023-07-05T09:04:03.322Z,964.9
2023-07-05T09:08:46.467Z,964.8
2023-07-05T09:13:29.869Z,964.7
2023-07-05T09:18:13.074Z,964.8
2023-07-05T09:32:22.795Z,966
2023-07-05T09:37:05.691Z,965.9
2023-07-05T09:41:48.897Z,965.9
2023-07-05T09:46:32.318Z,966.2
2023-07-05T09:51:15.419Z,966.3
2023-07-05T09:55:58.722Z,966.4
2023-07-05T10:00:41.731Z,966.2
2023-07-05T10:05:24.935Z,966.3
2023-07-05T10:10:08.258Z,966.4
2023-07-05T10:19:34.797Z,966.4
2023-07-05T10:29:01.328Z,966.4
2023-07-05T10:33:44.580Z,966.6
2023-07-05T10:43:11.150Z,966.6
2023-07-05T10:52:37.612Z,966.7
2023-07-05T10:57:20.510Z,966.8
2023-07-05T11:02:03.714Z,966.7
2023-07-05T11:06:47.207Z,966.5
2023-07-05T11:11:30.449Z,966.5
2023-07-05T11:16:13.746Z,966.4
2023-07-05T11:20:56.996Z,966.3
2023-07-05T11:25:40.230Z,966.1
2023-07-05T11:30:23.354Z,965.9
2023-07-05T11:35:06.734Z,965.9
2023-07-05T11:39:50.113Z,965.9
2023-07-05T11:44:33.358Z,965.8
2023-07-05T11:49:16.586Z,965.9
2023-07-05T11:53:59.855Z,965.8
2023-07-05T11:58:42.085Z,965.4
2023-07-05T12:03:25.000Z,965.6
2023-07-05T12:08:07.658Z,965.4
2023-07-05T12:12:50.479Z,965.5
2023-07-05T12:22:15.887Z,965.5
2023-07-05T12:26:58.609Z,965.1
2023-07-05T12:31:41.304Z,965.2
2023-07-05T12:36:24.193Z,965
2023-07-05T12:41:06.126Z,965.2
2023-07-05T12:45:48.839Z,965
2023-07-05T12:55:14.184Z,965.2
2023-07-05T12:59:57.005Z,965.2
2023-07-05T13:04:39.770Z,965.1
2023-07-05T13:09:22.479Z,965.1
2023-07-05T13:14:04.980Z,965.1
2023-07-05T13:18:48.014Z,965
2023-07-05T13:23:30.790Z,965.1
2023-07-05T13:32:56.155Z,965
2023-07-05T13:37:38.921Z,964.9
2023-07-05T13:42:21.604Z,965.1
2023-07-05T13:51:46.271Z,964.9
2023-07-05T13:56:29.159Z,965
2023-07-05T14:05:54.548Z,964.8
2023-07-05T14:10:37.337Z,965
2023-07-05T14:15:20.066Z,964.9
2023-07-05T14:20:02.756Z,964.9
2023-07-05T14:24:45.278Z,964.9
2023-07-05T14:34:10.903Z,965
2023-07-05T14:43:36.338Z,964.8
2023-07-05T14:48:19.092Z,965
2023-07-05T14:53:01.719Z,965
2023-07-05T15:02:27.335Z,965.2
2023-07-05T15:07:09.997Z,965.1
2023-07-05T15:11:52.818Z,965.2
2023-07-05T15:16:35.508Z,965.2
2023-07-05T15:21:18.307Z,965.1
2023-07-05T15:26:00.065Z,965.2
2023-07-05T15:35:25.829Z,965.2
2023-07-05T15:40:08.283Z,965.2
2023-07-05T15:44:51.007Z,965.2
2023-07-05T15:58:59.432Z,965.4
2023-07-05T16:03:42.063Z,965.3
2023-07-05T16:13:07.425Z,965.4
2023-07-05T16:17:50.275Z,965.5
2023-07-05T16:22:33.105Z,965.5
2023-07-05T16:27:15.763Z,965.5
2023-07-05T16:31:58.521Z,965.6
2023-07-05T16:36:41.228Z,965.6
2023-07-05T16:46:06.711Z,965.7
2023-07-05T16:55:31.985Z,965.9
2023-07-05T17:04:57.493Z,966.1
2023-07-05T17:09:40.217Z,966
2023-07-05T17:14:22.934Z,966.1
2023-07-05T17:19:05.000Z,966.1
2023-07-05T17:28:30.529Z,966.2
2023-07-05T17:42:38.675Z,966.3
2023-07-05T17:47:21.406Z,966.3
2023-07-05T17:52:04.282Z,966.3
2023-07-05T17:56:46.965Z,966.3
2023-07-05T18:06:12.451Z,966.5
2023-07-05T18:15:37.878Z,966.7
2023-07-05T18:25:03.405Z,966.7
2023-07-05T18:34:28.846Z,966.9
2023-07-05T18:39:11.587Z,966.9
2023-07-05T18:43:54.300Z,967
2023-07-05T18:48:37.051Z,967.1
2023-07-05T18:53:19.714Z,967.2
2023-07-05T18:58:02.346Z,967.2
2023-07-05T19:07:27.976Z,967.2
2023-07-05T19:12:10.692Z,967.3
2023-07-05T19:16:53.413Z,967.4
2023-07-05T19:31:01.404Z,967.7
2023-07-05T19:35:44.206Z,967.7
2023-07-05T19:40:26.900Z,967.7
2023-07-05T19:45:09.755Z,967.8
2023-07-05T19:49:52.324Z,967.9
2023-07-05T19:54:35.220Z,967.9
2023-07-05T19:59:17.846Z,968
2023-07-05T20:04:00.601Z,968
2023-07-05T20:13:25.240Z,968
2023-07-05T20:18:08.046Z,968.1
2023-07-05T20:27:33.510Z,968.2
2023-07-05T20:36:59.073Z,968.3
2023-07-05T20:41:41.669Z,968.4
2023-07-05T20:46:24.384Z,968.4
2023-07-05T20:51:07.085Z,968.4
2023-07-05T21:00:32.613Z,968.5
2023-07-05T21:09:58.162Z,968.6
2023-07-05T21:14:40.810Z,968.6
2023-07-05T21:24:06.257Z,968.7
2023-07-05T21:28:49.124Z,968.7
2023-07-05T21:33:31.880Z,968.7
2023-07-05T21:38:14.502Z,968.8
2023-07-05T21:52:22.804Z,968.9
2023-07-05T21:57:05.474Z,968.9
2023-07-05T22:01:48.065Z,969
2023-07-05T22:06:30.890Z,969
2023-07-05T22:11:13.696Z,969
2023-07-05T22:20:38.996Z,969
2023-07-05T22:25:21.711Z,969.1
2023-07-05T22:30:03.700Z,969.2
2023-07-05T22:34:46.510Z,969.2
2023-07-05T22:39:29.216Z,969.2
2023-07-05T22:44:12.073Z,969.3
2023-07-05T22:48:54.654Z,969.3
2023-07-05T22:58:20.127Z,969.2
2023-07-05T23:07:45.638Z,969.2
2023-07-05T23:17:11.057Z,969.2
2023-07-05T23:21:53.906Z,969.2
2023-07-05T23:36:02.008Z,969
2023-07-05T23:40:44.079Z,969.2
2023-07-05T23:45:26.687Z,969.3
2023-07-05T23:59:34.998Z,969.5
